Hanna, Canada
Current Conditions -  °F | °C
As of 10:00 PM on Sunday 19 Oct 2014 (Local Time) from CYQF Reporting Station
Overcast Overcast  
Wind Chill: 44°   Ceiling: 25000
Heat Index: 48°   Visibility: 15mi
Dew Point: 36°   Wind: 9mph
Humidity: 62%   Direction: 180°S
Pressure: 29.64"   Gusts: NA
Location:  51.64°N, 111.94°W
Report Text: CYQF 200400Z 18008KT 15SM OVC250 09/02 A2964 RMK CI8 SLP059 DENSITY ALT 3200FT
Loading
Personal Weather Stations






























Interactive Weather Map
Tropical Storm Tracking
New forecast layout! Learn more

10-Day Weather Forecast

Advertisements
Track Severe Weather on mobile